sensor_id;sensor_type;location;lat;lon;timestamp;P1;durP1;ratioP1;P2;durP2;ratioP2
16450;SDS011;12243;42.708;23.310;2023-07-29T00:02:04;2.55;;;2.45;;
16450;SDS011;12243;42.708;23.310;2023-07-29T00:04:33;3.13;;;2.85;;
16450;SDS011;12243;42.708;23.310;2023-07-29T00:07:00;2.58;;;2.47;;
16450;SDS011;12243;42.708;23.310;2023-07-29T00:09:26;2.75;;;2.50;;
16450;SDS011;12243;42.708;23.310;2023-07-29T00:11:53;3.15;;;2.75;;
16450;SDS011;12243;42.708;23.310;2023-07-29T00:14:20;3.65;;;3.00;;
16450;SDS011;12243;42.708;23.310;2023-07-29T00:16:47;2.83;;;2.70;;
16450;SDS011;12243;42.708;23.310;2023-07-29T00:19:14;2.55;;;2.40;;
16450;SDS011;12243;42.708;23.310;2023-07-29T00:21:42;3.00;;;2.80;;
16450;SDS011;12243;42.708;23.310;2023-07-29T00:24:09;3.03;;;2.80;;
16450;SDS011;12243;42.708;23.310;2023-07-29T00:26:36;3.15;;;2.95;;
16450;SDS011;12243;42.708;23.310;2023-07-29T00:29:03;3.05;;;2.85;;
16450;SDS011;12243;42.708;23.310;2023-07-29T00:31:30;2.45;;;2.33;;
16450;SDS011;12243;42.708;23.310;2023-07-29T00:33:57;3.03;;;2.65;;
16450;SDS011;12243;42.708;23.310;2023-07-29T00:36:24;2.83;;;2.63;;
16450;SDS011;12243;42.708;23.310;2023-07-29T00:38:52;2.70;;;2.50;;
16450;SDS011;12243;42.708;23.310;2023-07-29T00:41:22;2.33;;;2.13;;
16450;SDS011;12243;42.708;23.310;2023-07-29T00:43:49;2.65;;;2.53;;
16450;SDS011;12243;42.708;23.310;2023-07-29T00:46:16;2.28;;;2.17;;
16450;SDS011;12243;42.708;23.310;2023-07-29T00:48:43;4.18;;;2.28;;
16450;SDS011;12243;42.708;23.310;2023-07-29T00:51:10;2.75;;;2.65;;
16450;SDS011;12243;42.708;23.310;2023-07-29T00:53:37;2.65;;;2.53;;
16450;SDS011;12243;42.708;23.310;2023-07-29T00:56:07;2.58;;;2.47;;
16450;SDS011;12243;42.708;23.310;2023-07-29T00:58:34;3.78;;;2.40;;
16450;SDS011;12243;42.708;23.310;2023-07-29T01:01:01;3.00;;;2.38;;
16450;SDS011;12243;42.708;23.310;2023-07-29T01:03:28;3.88;;;2.90;;
16450;SDS011;12243;42.708;23.310;2023-07-29T01:05:59;2.78;;;2.67;;
16450;SDS011;12243;42.708;23.310;2023-07-29T01:08:45;2.67;;;2.50;;
16450;SDS011;12243;42.708;23.310;2023-07-29T01:11:18;3.08;;;2.88;;
16450;SDS011;12243;42.708;23.310;2023-07-29T01:14:00;2.70;;;2.50;;
16450;SDS011;12243;42.708;23.310;2023-07-29T01:16:33;2.88;;;2.67;;
16450;SDS011;12243;42.708;23.310;2023-07-29T01:19:06;2.65;;;2.55;;
16450;SDS011;12243;42.708;23.310;2023-07-29T01:21:41;2.85;;;2.75;;
16450;SDS011;12243;42.708;23.310;2023-07-29T01:24:09;3.00;;;2.80;;
16450;SDS011;12243;42.708;23.310;2023-07-29T01:26:37;3.05;;;2.85;;
16450;SDS011;12243;42.708;23.310;2023-07-29T01:29:04;3.08;;;2.88;;
16450;SDS011;12243;42.708;23.310;2023-07-29T01:31:33;3.10;;;2.90;;
16450;SDS011;12243;42.708;23.310;2023-07-29T01:34:05;2.75;;;2.60;;
16450;SDS011;12243;42.708;23.310;2023-07-29T01:36:36;3.08;;;2.88;;
16450;SDS011;12243;42.708;23.310;2023-07-29T01:39:06;3.45;;;2.65;;
16450;SDS011;12243;42.708;23.310;2023-07-29T01:41:35;2.50;;;2.40;;
16450;SDS011;12243;42.708;23.310;2023-07-29T01:44:02;2.72;;;2.63;;
16450;SDS011;12243;42.708;23.310;2023-07-29T01:46:32;2.92;;;2.72;;
16450;SDS011;12243;42.708;23.310;2023-07-29T01:48:59;3.45;;;2.88;;
16450;SDS011;12243;42.708;23.310;2023-07-29T01:51:26;3.15;;;2.95;;
16450;SDS011;12243;42.708;23.310;2023-07-29T01:53:53;2.90;;;2.70;;
16450;SDS011;12243;42.708;23.310;2023-07-29T01:56:21;2.55;;;2.45;;
16450;SDS011;12243;42.708;23.310;2023-07-29T01:58:53;2.70;;;2.50;;
16450;SDS011;12243;42.708;23.310;2023-07-29T02:01:21;6.78;;;2.97;;
16450;SDS011;12243;42.708;23.310;2023-07-29T02:03:47;3.00;;;2.80;;
16450;SDS011;12243;42.708;23.310;2023-07-29T02:06:19;3.90;;;2.80;;
16450;SDS011;12243;42.708;23.310;2023-07-29T02:08:46;3.67;;;3.38;;
16450;SDS011;12243;42.708;23.310;2023-07-29T02:11:13;3.35;;;2.90;;
16450;SDS011;12243;42.708;23.310;2023-07-29T02:13:40;2.60;;;2.40;;
16450;SDS011;12243;42.708;23.310;2023-07-29T02:16:13;2.78;;;2.50;;
16450;SDS011;12243;42.708;23.310;2023-07-29T02:18:40;2.85;;;2.67;;
16450;SDS011;12243;42.708;23.310;2023-07-29T02:21:07;2.70;;;2.58;;
16450;SDS011;12243;42.708;23.310;2023-07-29T02:23:34;2.90;;;2.70;;
16450;SDS011;12243;42.708;23.310;2023-07-29T02:26:00;2.78;;;2.60;;
16450;SDS011;12243;42.708;23.310;2023-07-29T02:28:27;2.58;;;2.47;;
16450;SDS011;12243;42.708;23.310;2023-07-29T02:31:08;2.63;;;2.42;;
16450;SDS011;12243;42.708;23.310;2023-07-29T02:33:38;2.63;;;2.42;;
16450;SDS011;12243;42.708;23.310;2023-07-29T02:36:05;2.72;;;2.20;;
16450;SDS011;12243;42.708;23.310;2023-07-29T02:38:31;2.50;;;2.40;;
16450;SDS011;12243;42.708;23.310;2023-07-29T02:40:58;2.13;;;2.10;;
16450;SDS011;12243;42.708;23.310;2023-07-29T02:43:25;2.50;;;2.40;;
16450;SDS011;12243;42.708;23.310;2023-07-29T02:45:52;2.90;;;2.63;;
16450;SDS011;12243;42.708;23.310;2023-07-29T02:48:19;2.30;;;2.20;;
16450;SDS011;12243;42.708;23.310;2023-07-29T02:50:47;2.65;;;2.55;;
16450;SDS011;12243;42.708;23.310;2023-07-29T02:53:14;2.90;;;2.70;;
16450;SDS011;12243;42.708;23.310;2023-07-29T02:55:41;2.85;;;2.55;;
16450;SDS011;12243;42.708;23.310;2023-07-29T02:58:08;2.60;;;2.50;;
16450;SDS011;12243;42.708;23.310;2023-07-29T03:00:35;2.72;;;2.63;;
16450;SDS011;12243;42.708;23.310;2023-07-29T03:03:02;3.53;;;3.25;;
16450;SDS011;12243;42.708;23.310;2023-07-29T03:05:29;2.65;;;2.55;;
16450;SDS011;12243;42.708;23.310;2023-07-29T03:07:58;3.08;;;2.60;;
16450;SDS011;12243;42.708;23.310;2023-07-29T03:10:25;3.10;;;2.90;;
16450;SDS011;12243;42.708;23.310;2023-07-29T03:12:53;3.50;;;3.20;;
16450;SDS011;12243;42.708;23.310;2023-07-29T03:15:23;3.67;;;3.35;;
16450;SDS011;12243;42.708;23.310;2023-07-29T03:17:50;3.42;;;3.10;;
16450;SDS011;12243;42.708;23.310;2023-07-29T03:20:17;3.70;;;3.35;;
16450;SDS011;12243;42.708;23.310;2023-07-29T03:22:44;6.13;;;2.85;;
16450;SDS011;12243;42.708;23.310;2023-07-29T03:25:13;3.55;;;2.90;;
16450;SDS011;12243;42.708;23.310;2023-07-29T03:27:40;3.30;;;3.10;;
16450;SDS011;12243;42.708;23.310;2023-07-29T03:30:07;3.13;;;2.92;;
16450;SDS011;12243;42.708;23.310;2023-07-29T03:32:35;4.00;;;3.13;;
16450;SDS011;12243;42.708;23.310;2023-07-29T03:35:04;4.18;;;2.85;;
16450;SDS011;12243;42.708;23.310;2023-07-29T03:37:31;3.40;;;3.10;;
16450;SDS011;12243;42.708;23.310;2023-07-29T03:39:59;2.85;;;2.75;;
16450;SDS011;12243;42.708;23.310;2023-07-29T03:42:27;3.40;;;3.20;;
16450;SDS011;12243;42.708;23.310;2023-07-29T03:44:54;3.20;;;3.00;;
16450;SDS011;12243;42.708;23.310;2023-07-29T03:47:20;3.30;;;2.97;;
16450;SDS011;12243;42.708;23.310;2023-07-29T03:49:48;6.00;;;3.63;;
16450;SDS011;12243;42.708;23.310;2023-07-29T03:52:18;3.63;;;3.40;;
16450;SDS011;12243;42.708;23.310;2023-07-29T03:54:45;3.35;;;3.15;;
16450;SDS011;12243;42.708;23.310;2023-07-29T03:57:12;3.33;;;3.10;;
16450;SDS011;12243;42.708;23.310;2023-07-29T03:59:40;2.72;;;2.53;;
16450;SDS011;12243;42.708;23.310;2023-07-29T04:02:07;3.10;;;2.88;;
16450;SDS011;12243;42.708;23.310;2023-07-29T04:04:34;2.95;;;2.85;;
16450;SDS011;12243;42.708;23.310;2023-07-29T04:07:01;3.15;;;3.05;;
16450;SDS011;12243;42.708;23.310;2023-07-29T04:09:28;3.50;;;3.25;;
16450;SDS011;12243;42.708;23.310;2023-07-29T04:11:55;2.97;;;2.80;;
16450;SDS011;12243;42.708;23.310;2023-07-29T04:14:22;3.95;;;3.65;;
16450;SDS011;12243;42.708;23.310;2023-07-29T04:16:50;4.07;;;2.90;;
16450;SDS011;12243;42.708;23.310;2023-07-29T04:19:18;3.03;;;2.88;;
16450;SDS011;12243;42.708;23.310;2023-07-29T04:21:46;3.80;;;3.60;;
16450;SDS011;12243;42.708;23.310;2023-07-29T04:24:16;3.47;;;3.28;;
16450;SDS011;12243;42.708;23.310;2023-07-29T04:26:45;3.72;;;3.38;;
16450;SDS011;12243;42.708;23.310;2023-07-29T04:29:12;2.97;;;2.78;;
16450;SDS011;12243;42.708;23.310;2023-07-29T04:31:39;3.55;;;3.15;;
16450;SDS011;12243;42.708;23.310;2023-07-29T04:34:08;6.72;;;3.20;;
16450;SDS011;12243;42.708;23.310;2023-07-29T04:36:35;3.33;;;3.00;;
16450;SDS011;12243;42.708;23.310;2023-07-29T04:39:02;3.92;;;3.03;;
16450;SDS011;12243;42.708;23.310;2023-07-29T04:41:29;4.25;;;3.85;;
16450;SDS011;12243;42.708;23.310;2023-07-29T04:43:57;4.20;;;3.72;;
16450;SDS011;12243;42.708;23.310;2023-07-29T04:46:24;4.70;;;3.10;;
16450;SDS011;12243;42.708;23.310;2023-07-29T04:48:51;3.40;;;3.20;;
16450;SDS011;12243;42.708;23.310;2023-07-29T04:51:19;3.75;;;3.28;;
16450;SDS011;12243;42.708;23.310;2023-07-29T04:53:46;3.20;;;3.00;;
16450;SDS011;12243;42.708;23.310;2023-07-29T04:56:13;4.60;;;3.45;;
16450;SDS011;12243;42.708;23.310;2023-07-29T04:58:40;4.10;;;3.67;;
16450;SDS011;12243;42.708;23.310;2023-07-29T05:01:07;5.28;;;3.50;;
16450;SDS011;12243;42.708;23.310;2023-07-29T05:03:35;3.95;;;3.75;;
16450;SDS011;12243;42.708;23.310;2023-07-29T05:06:02;3.80;;;3.50;;
16450;SDS011;12243;42.708;23.310;2023-07-29T05:08:31;4.05;;;3.75;;
16450;SDS011;12243;42.708;23.310;2023-07-29T05:10:59;4.50;;;4.20;;
16450;SDS011;12243;42.708;23.310;2023-07-29T05:13:27;3.92;;;3.50;;
16450;SDS011;12243;42.708;23.310;2023-07-29T05:15:54;4.03;;;3.72;;
16450;SDS011;12243;42.708;23.310;2023-07-29T05:18:21;6.10;;;4.53;;
16450;SDS011;12243;42.708;23.310;2023-07-29T05:20:48;5.40;;;4.70;;
16450;SDS011;12243;42.708;23.310;2023-07-29T05:23:16;4.75;;;4.30;;
16450;SDS011;12243;42.708;23.310;2023-07-29T05:25:44;3.78;;;3.58;;
16450;SDS011;12243;42.708;23.310;2023-07-29T05:28:11;5.80;;;3.95;;
16450;SDS011;12243;42.708;23.310;2023-07-29T05:30:38;4.03;;;3.50;;
16450;SDS011;12243;42.708;23.310;2023-07-29T05:33:06;5.13;;;4.32;;
16450;SDS011;12243;42.708;23.310;2023-07-29T05:35:33;4.57;;;3.95;;
16450;SDS011;12243;42.708;23.310;2023-07-29T05:38:00;4.53;;;3.78;;
16450;SDS011;12243;42.708;23.310;2023-07-29T05:40:29;4.35;;;3.60;;
16450;SDS011;12243;42.708;23.310;2023-07-29T05:42:57;4.30;;;3.90;;
16450;SDS011;12243;42.708;23.310;2023-07-29T05:45:24;4.93;;;3.90;;
16450;SDS011;12243;42.708;23.310;2023-07-29T05:47:51;5.60;;;4.03;;
16450;SDS011;12243;42.708;23.310;2023-07-29T05:50:21;5.88;;;3.72;;
16450;SDS011;12243;42.708;23.310;2023-07-29T05:52:48;4.38;;;4.07;;
16450;SDS011;12243;42.708;23.310;2023-07-29T05:55:15;5.38;;;4.40;;
16450;SDS011;12243;42.708;23.310;2023-07-29T05:57:42;4.40;;;4.10;;
16450;SDS011;12243;42.708;23.310;2023-07-29T06:00:11;5.25;;;4.57;;
16450;SDS011;12243;42.708;23.310;2023-07-29T06:02:39;5.00;;;4.05;;
16450;SDS011;12243;42.708;23.310;2023-07-29T06:05:07;5.28;;;4.18;;
16450;SDS011;12243;42.708;23.310;2023-07-29T06:07:34;4.00;;;3.80;;
16450;SDS011;12243;42.708;23.310;2023-07-29T06:10:02;4.18;;;3.80;;
16450;SDS011;12243;42.708;23.310;2023-07-29T06:12:29;4.18;;;3.88;;
16450;SDS011;12243;42.708;23.310;2023-07-29T06:14:56;5.43;;;3.83;;
16450;SDS011;12243;42.708;23.310;2023-07-29T06:17:25;4.30;;;4.00;;
16450;SDS011;12243;42.708;23.310;2023-07-29T06:19:52;4.53;;;3.90;;
16450;SDS011;12243;42.708;23.310;2023-07-29T06:22:19;4.78;;;4.45;;
16450;SDS011;12243;42.708;23.310;2023-07-29T06:24:46;4.60;;;4.03;;
16450;SDS011;12243;42.708;23.310;2023-07-29T06:27:13;4.95;;;4.45;;
16450;SDS011;12243;42.708;23.310;2023-07-29T06:29:40;4.85;;;4.45;;
16450;SDS011;12243;42.708;23.310;2023-07-29T06:32:07;4.68;;;4.22;;
16450;SDS011;12243;42.708;23.310;2023-07-29T06:34:35;4.45;;;4.15;;
16450;SDS011;12243;42.708;23.310;2023-07-29T06:37:02;5.00;;;4.45;;
16450;SDS011;12243;42.708;23.310;2023-07-29T06:39:29;5.60;;;4.30;;
16450;SDS011;12243;42.708;23.310;2023-07-29T06:41:56;4.72;;;4.32;;
16450;SDS011;12243;42.708;23.310;2023-07-29T06:44:22;5.10;;;4.60;;
16450;SDS011;12243;42.708;23.310;2023-07-29T06:46:49;4.55;;;4.22;;
16450;SDS011;12243;42.708;23.310;2023-07-29T06:49:16;4.45;;;4.15;;
16450;SDS011;12243;42.708;23.310;2023-07-29T06:51:44;4.30;;;4.00;;
16450;SDS011;12243;42.708;23.310;2023-07-29T06:54:11;7.45;;;4.68;;
16450;SDS011;12243;42.708;23.310;2023-07-29T06:56:38;4.45;;;4.07;;
16450;SDS011;12243;42.708;23.310;2023-07-29T06:59:05;4.53;;;4.13;;
16450;SDS011;12243;42.708;23.310;2023-07-29T07:01:33;6.88;;;4.07;;
16450;SDS011;12243;42.708;23.310;2023-07-29T07:04:00;4.63;;;4.32;;
16450;SDS011;12243;42.708;23.310;2023-07-29T07:06:27;6.10;;;3.90;;
16450;SDS011;12243;42.708;23.310;2023-07-29T07:08:55;7.18;;;4.15;;
16450;SDS011;12243;42.708;23.310;2023-07-29T07:11:22;5.80;;;4.43;;
16450;SDS011;12243;42.708;23.310;2023-07-29T07:13:49;7.10;;;4.20;;
16450;SDS011;12243;42.708;23.310;2023-07-29T07:16:15;6.78;;;4.45;;
16450;SDS011;12243;42.708;23.310;2023-07-29T07:18:42;5.47;;;4.00;;
16450;SDS011;12243;42.708;23.310;2023-07-29T07:21:09;4.28;;;3.92;;
16450;SDS011;12243;42.708;23.310;2023-07-29T07:23:39;5.22;;;4.00;;
16450;SDS011;12243;42.708;23.310;2023-07-29T07:26:08;4.40;;;4.00;;
16450;SDS011;12243;42.708;23.310;2023-07-29T07:28:35;4.00;;;3.70;;
16450;SDS011;12243;42.708;23.310;2023-07-29T07:31:01;4.13;;;3.83;;
16450;SDS011;12243;42.708;23.310;2023-07-29T07:33:28;4.30;;;3.90;;
16450;SDS011;12243;42.708;23.310;2023-07-29T07:35:55;4.47;;;3.90;;
16450;SDS011;12243;42.708;23.310;2023-07-29T07:38:22;4.28;;;3.60;;
16450;SDS011;12243;42.708;23.310;2023-07-29T07:40:52;4.40;;;4.00;;
16450;SDS011;12243;42.708;23.310;2023-07-29T07:43:21;4.32;;;3.90;;
16450;SDS011;12243;42.708;23.310;2023-07-29T07:45:48;4.05;;;3.75;;
16450;SDS011;12243;42.708;23.310;2023-07-29T07:48:15;3.95;;;3.65;;
16450;SDS011;12243;42.708;23.310;2023-07-29T07:50:43;5.13;;;3.40;;
16450;SDS011;12243;42.708;23.310;2023-07-29T07:53:10;5.18;;;3.85;;
16450;SDS011;12243;42.708;23.310;2023-07-29T07:55:38;3.90;;;3.53;;
16450;SDS011;12243;42.708;23.310;2023-07-29T07:58:04;3.90;;;3.42;;
16450;SDS011;12243;42.708;23.310;2023-07-29T08:00:33;3.67;;;3.47;;
16450;SDS011;12243;42.708;23.310;2023-07-29T08:03:00;3.70;;;3.40;;
16450;SDS011;12243;42.708;23.310;2023-07-29T08:05:27;3.58;;;3.28;;
16450;SDS011;12243;42.708;23.310;2023-07-29T08:07:54;3.42;;;3.20;;
16450;SDS011;12243;42.708;23.310;2023-07-29T08:10:20;6.20;;;3.95;;
16450;SDS011;12243;42.708;23.310;2023-07-29T08:12:48;8.07;;;3.60;;
16450;SDS011;12243;42.708;23.310;2023-07-29T08:15:15;5.45;;;4.10;;
16450;SDS011;12243;42.708;23.310;2023-07-29T08:17:43;5.53;;;4.45;;
16450;SDS011;12243;42.708;23.310;2023-07-29T08:20:12;8.75;;;4.22;;
16450;SDS011;12243;42.708;23.310;2023-07-29T08:22:39;6.15;;;4.32;;
16450;SDS011;12243;42.708;23.310;2023-07-29T08:25:06;4.70;;;4.13;;
16450;SDS011;12243;42.708;23.310;2023-07-29T08:27:33;4.68;;;3.78;;
16450;SDS011;12243;42.708;23.310;2023-07-29T08:30:00;3.50;;;3.20;;
16450;SDS011;12243;42.708;23.310;2023-07-29T08:32:27;3.97;;;3.67;;
16450;SDS011;12243;42.708;23.310;2023-07-29T08:34:56;5.88;;;3.72;;
16450;SDS011;12243;42.708;23.310;2023-07-29T08:37:23;4.03;;;3.72;;
16450;SDS011;12243;42.708;23.310;2023-07-29T08:39:50;3.90;;;3.70;;
16450;SDS011;12243;42.708;23.310;2023-07-29T08:42:19;3.50;;;3.30;;
16450;SDS011;12243;42.708;23.310;2023-07-29T08:44:47;3.15;;;2.90;;
16450;SDS011;12243;42.708;23.310;2023-07-29T08:47:15;3.25;;;2.83;;
16450;SDS011;12243;42.708;23.310;2023-07-29T08:49:43;3.30;;;3.00;;
16450;SDS011;12243;42.708;23.310;2023-07-29T08:52:12;3.00;;;2.78;;
16450;SDS011;12243;42.708;23.310;2023-07-29T08:54:41;3.50;;;3.00;;
16450;SDS011;12243;42.708;23.310;2023-07-29T08:57:08;3.30;;;3.10;;
16450;SDS011;12243;42.708;23.310;2023-07-29T08:59:35;3.40;;;3.08;;
16450;SDS011;12243;42.708;23.310;2023-07-29T09:02:03;3.97;;;2.72;;
16450;SDS011;12243;42.708;23.310;2023-07-29T09:04:30;3.25;;;3.05;;
16450;SDS011;12243;42.708;23.310;2023-07-29T09:06:58;3.72;;;2.45;;
16450;SDS011;12243;42.708;23.310;2023-07-29T09:09:27;2.47;;;2.25;;
16450;SDS011;12243;42.708;23.310;2023-07-29T09:11:54;2.20;;;2.03;;
16450;SDS011;12243;42.708;23.310;2023-07-29T09:14:21;3.53;;;2.70;;
16450;SDS011;12243;42.708;23.310;2023-07-29T09:16:49;2.58;;;2.47;;
16450;SDS011;12243;42.708;23.310;2023-07-29T09:19:16;2.30;;;2.20;;
16450;SDS011;12243;42.708;23.310;2023-07-29T09:21:45;2.22;;;2.13;;
16450;SDS011;12243;42.708;23.310;2023-07-29T09:24:12;2.55;;;2.35;;
16450;SDS011;12243;42.708;23.310;2023-07-29T09:26:51;2.00;;;1.90;;
16450;SDS011;12243;42.708;23.310;2023-07-29T09:29:23;3.05;;;1.85;;
16450;SDS011;12243;42.708;23.310;2023-07-29T09:31:54;2.20;;;2.10;;
16450;SDS011;12243;42.708;23.310;2023-07-29T09:34:45;2.00;;;1.90;;
16450;SDS011;12243;42.708;23.310;2023-07-29T09:37:15;2.20;;;2.00;;
16450;SDS011;12243;42.708;23.310;2023-07-29T09:39:44;1.63;;;1.63;;
16450;SDS011;12243;42.708;23.310;2023-07-29T09:42:14;1.65;;;1.65;;
16450;SDS011;12243;42.708;23.310;2023-07-29T09:44:44;1.98;;;1.88;;
16450;SDS011;12243;42.708;23.310;2023-07-29T09:47:18;1.80;;;1.75;;
16450;SDS011;12243;42.708;23.310;2023-07-29T09:49:45;1.75;;;1.75;;
16450;SDS011;12243;42.708;23.310;2023-07-29T09:52:13;1.48;;;1.48;;
16450;SDS011;12243;42.708;23.310;2023-07-29T09:54:44;1.33;;;1.33;;
16450;SDS011;12243;42.708;23.310;2023-07-29T09:57:14;1.10;;;1.10;;
16450;SDS011;12243;42.708;23.310;2023-07-29T09:59:42;1.60;;;1.50;;
16450;SDS011;12243;42.708;23.310;2023-07-29T10:02:13;1.77;;;1.75;;
16450;SDS011;12243;42.708;23.310;2023-07-29T10:04:42;1.67;;;1.20;;
16450;SDS011;12243;42.708;23.310;2023-07-29T10:07:10;2.08;;;1.98;;
16450;SDS011;12243;42.708;23.310;2023-07-29T10:09:38;2.08;;;1.98;;
16450;SDS011;12243;42.708;23.310;2023-07-29T10:12:06;1.90;;;1.80;;
16450;SDS011;12243;42.708;23.310;2023-07-29T10:14:35;1.90;;;1.80;;
16450;SDS011;12243;42.708;23.310;2023-07-29T10:17:04;2.40;;;2.15;;
16450;SDS011;12243;42.708;23.310;2023-07-29T10:19:32;2.42;;;1.80;;
16450;SDS011;12243;42.708;23.310;2023-07-29T10:22:00;2.05;;;1.85;;
16450;SDS011;12243;42.708;23.310;2023-07-29T10:24:30;1.90;;;1.80;;
16450;SDS011;12243;42.708;23.310;2023-07-29T10:27:00;1.60;;;1.60;;
16450;SDS011;12243;42.708;23.310;2023-07-29T10:29:30;1.80;;;1.70;;
16450;SDS011;12243;42.708;23.310;2023-07-29T10:32:01;1.33;;;1.33;;
16450;SDS011;12243;42.708;23.310;2023-07-29T10:34:29;1.98;;;1.88;;
16450;SDS011;12243;42.708;23.310;2023-07-29T10:36:56;1.58;;;1.58;;
16450;SDS011;12243;42.708;23.310;2023-07-29T10:39:24;1.88;;;1.70;;
16450;SDS011;12243;42.708;23.310;2023-07-29T10:41:55;1.73;;;1.63;;
16450;SDS011;12243;42.708;23.310;2023-07-29T10:47:20;1.50;;;1.50;;
16450;SDS011;12243;42.708;23.310;2023-07-29T10:49:50;1.55;;;1.45;;
16450;SDS011;12243;42.708;23.310;2023-07-29T10:55:23;1.70;;;1.60;;
16450;SDS011;12243;42.708;23.310;2023-07-29T10:57:51;1.50;;;1.50;;
16450;SDS011;12243;42.708;23.310;2023-07-29T11:00:19;1.52;;;1.40;;
16450;SDS011;12243;42.708;23.310;2023-07-29T11:02:56;1.45;;;1.40;;
16450;SDS011;12243;42.708;23.310;2023-07-29T11:05:26;1.20;;;1.20;;
16450;SDS011;12243;42.708;23.310;2023-07-29T11:07:53;1.10;;;1.10;;
16450;SDS011;12243;42.708;23.310;2023-07-29T11:10:20;1.42;;;1.20;;
16450;SDS011;12243;42.708;23.310;2023-07-29T11:12:47;1.30;;;1.20;;
16450;SDS011;12243;42.708;23.310;2023-07-29T11:15:23;1.55;;;1.50;;
16450;SDS011;12243;42.708;23.310;2023-07-29T11:17:53;1.17;;;1.17;;
16450;SDS011;12243;42.708;23.310;2023-07-29T11:20:21;1.50;;;1.50;;
16450;SDS011;12243;42.708;23.310;2023-07-29T11:22:49;1.50;;;1.40;;
16450;SDS011;12243;42.708;23.310;2023-07-29T11:25:17;1.38;;;1.38;;
16450;SDS011;12243;42.708;23.310;2023-07-29T11:27:45;1.40;;;1.40;;
16450;SDS011;12243;42.708;23.310;2023-07-29T11:30:13;1.40;;;1.30;;
16450;SDS011;12243;42.708;23.310;2023-07-29T11:32:41;1.40;;;1.40;;
16450;SDS011;12243;42.708;23.310;2023-07-29T11:35:12;1.35;;;1.35;;
16450;SDS011;12243;42.708;23.310;2023-07-29T11:37:40;1.50;;;1.50;;
16450;SDS011;12243;42.708;23.310;2023-07-29T11:40:08;1.58;;;1.58;;
16450;SDS011;12243;42.708;23.310;2023-07-29T11:42:36;1.33;;;1.33;;
16450;SDS011;12243;42.708;23.310;2023-07-29T11:45:04;1.70;;;1.60;;
16450;SDS011;12243;42.708;23.310;2023-07-29T11:47:33;1.75;;;1.75;;
16450;SDS011;12243;42.708;23.310;2023-07-29T11:50:02;1.83;;;1.70;;
16450;SDS011;12243;42.708;23.310;2023-07-29T11:52:32;1.70;;;1.60;;
16450;SDS011;12243;42.708;23.310;2023-07-29T11:55:00;1.80;;;1.70;;
16450;SDS011;12243;42.708;23.310;2023-07-29T11:57:27;1.88;;;1.80;;
16450;SDS011;12243;42.708;23.310;2023-07-29T11:59:54;1.73;;;1.63;;
16450;SDS011;12243;42.708;23.310;2023-07-29T12:02:21;1.70;;;1.70;;
16450;SDS011;12243;42.708;23.310;2023-07-29T12:04:51;3.00;;;1.90;;
16450;SDS011;12243;42.708;23.310;2023-07-29T12:07:19;1.90;;;1.80;;
16450;SDS011;12243;42.708;23.310;2023-07-29T12:09:48;2.03;;;1.80;;
16450;SDS011;12243;42.708;23.310;2023-07-29T12:12:16;1.70;;;1.70;;
16450;SDS011;12243;42.708;23.310;2023-07-29T12:14:44;1.63;;;1.55;;
16450;SDS011;12243;42.708;23.310;2023-07-29T12:17:12;1.77;;;1.77;;
16450;SDS011;12243;42.708;23.310;2023-07-29T12:19:40;1.85;;;1.30;;
16450;SDS011;12243;42.708;23.310;2023-07-29T12:22:09;1.60;;;1.60;;
16450;SDS011;12243;42.708;23.310;2023-07-29T12:24:37;1.90;;;1.80;;
16450;SDS011;12243;42.708;23.310;2023-07-29T12:27:09;1.75;;;1.75;;
16450;SDS011;12243;42.708;23.310;2023-07-29T12:29:39;1.67;;;1.63;;
16450;SDS011;12243;42.708;23.310;2023-07-29T12:32:07;2.08;;;1.50;;
16450;SDS011;12243;42.708;23.310;2023-07-29T12:34:35;1.75;;;1.75;;
16450;SDS011;12243;42.708;23.310;2023-07-29T12:37:03;2.10;;;2.00;;
16450;SDS011;12243;42.708;23.310;2023-07-29T12:39:31;1.75;;;1.75;;
16450;SDS011;12243;42.708;23.310;2023-07-29T12:41:59;1.58;;;1.52;;
16450;SDS011;12243;42.708;23.310;2023-07-29T12:44:29;2.15;;;1.70;;
16450;SDS011;12243;42.708;23.310;2023-07-29T12:46:57;1.80;;;1.70;;
16450;SDS011;12243;42.708;23.310;2023-07-29T12:49:24;1.52;;;1.52;;
16450;SDS011;12243;42.708;23.310;2023-07-29T12:51:51;1.65;;;1.65;;
16450;SDS011;12243;42.708;23.310;2023-07-29T12:54:18;1.50;;;1.50;;
16450;SDS011;12243;42.708;23.310;2023-07-29T12:56:45;1.70;;;1.70;;
16450;SDS011;12243;42.708;23.310;2023-07-29T12:59:12;1.70;;;1.70;;
16450;SDS011;12243;42.708;23.310;2023-07-29T13:01:40;1.48;;;1.48;;
16450;SDS011;12243;42.708;23.310;2023-07-29T13:04:07;1.42;;;1.42;;
16450;SDS011;12243;42.708;23.310;2023-07-29T13:06:34;2.03;;;1.92;;
16450;SDS011;12243;42.708;23.310;2023-07-29T13:09:01;1.60;;;1.52;;
16450;SDS011;12243;42.708;23.310;2023-07-29T13:11:28;1.83;;;1.73;;
16450;SDS011;12243;42.708;23.310;2023-07-29T13:13:57;1.73;;;1.73;;
16450;SDS011;12243;42.708;23.310;2023-07-29T13:16:25;1.67;;;1.65;;
16450;SDS011;12243;42.708;23.310;2023-07-29T13:18:54;1.58;;;1.58;;
16450;SDS011;12243;42.708;23.310;2023-07-29T13:21:21;1.70;;;1.70;;
16450;SDS011;12243;42.708;23.310;2023-07-29T13:23:48;1.73;;;1.70;;
16450;SDS011;12243;42.708;23.310;2023-07-29T13:26:15;1.92;;;1.83;;
16450;SDS011;12243;42.708;23.310;2023-07-29T13:28:42;2.35;;;1.60;;
16450;SDS011;12243;42.708;23.310;2023-07-29T13:31:09;1.77;;;1.67;;
16450;SDS011;12243;42.708;23.310;2023-07-29T13:33:35;1.67;;;1.67;;
16450;SDS011;12243;42.708;23.310;2023-07-29T13:36:05;2.60;;;2.50;;
16450;SDS011;12243;42.708;23.310;2023-07-29T13:38:33;2.33;;;2.10;;
16450;SDS011;12243;42.708;23.310;2023-07-29T13:41:00;1.98;;;1.90;;
16450;SDS011;12243;42.708;23.310;2023-07-29T13:43:27;1.83;;;1.73;;
16450;SDS011;12243;42.708;23.310;2023-07-29T13:45:54;1.70;;;1.60;;
16450;SDS011;12243;42.708;23.310;2023-07-29T13:48:21;1.92;;;1.92;;
16450;SDS011;12243;42.708;23.310;2023-07-29T13:50:47;1.58;;;1.58;;
16450;SDS011;12243;42.708;23.310;2023-07-29T13:53:16;1.92;;;1.80;;
16450;SDS011;12243;42.708;23.310;2023-07-29T13:55:43;2.50;;;2.30;;
16450;SDS011;12243;42.708;23.310;2023-07-29T13:58:09;1.90;;;1.80;;
16450;SDS011;12243;42.708;23.310;2023-07-29T14:00:36;2.25;;;1.90;;
16450;SDS011;12243;42.708;23.310;2023-07-29T14:03:03;2.85;;;2.58;;
16450;SDS011;12243;42.708;23.310;2023-07-29T14:05:30;3.05;;;1.67;;
16450;SDS011;12243;42.708;23.310;2023-07-29T14:07:57;3.33;;;1.90;;
16450;SDS011;12243;42.708;23.310;2023-07-29T14:10:25;2.00;;;1.90;;
16450;SDS011;12243;42.708;23.310;2023-07-29T14:12:52;2.15;;;2.05;;
16450;SDS011;12243;42.708;23.310;2023-07-29T14:15:19;1.90;;;1.90;;
16450;SDS011;12243;42.708;23.310;2023-07-29T14:17:47;2.10;;;2.00;;
16450;SDS011;12243;42.708;23.310;2023-07-29T14:20:16;2.20;;;2.00;;
16450;SDS011;12243;42.708;23.310;2023-07-29T14:22:43;1.92;;;1.75;;
16450;SDS011;12243;42.708;23.310;2023-07-29T14:25:10;1.73;;;1.73;;
16450;SDS011;12243;42.708;23.310;2023-07-29T14:27:38;2.20;;;2.10;;
16450;SDS011;12243;42.708;23.310;2023-07-29T14:30:06;1.67;;;1.67;;
16450;SDS011;12243;42.708;23.310;2023-07-29T14:32:33;3.65;;;2.10;;
16450;SDS011;12243;42.708;23.310;2023-07-29T14:35:00;1.67;;;1.67;;
16450;SDS011;12243;42.708;23.310;2023-07-29T14:37:29;1.60;;;1.60;;
16450;SDS011;12243;42.708;23.310;2023-07-29T14:39:56;1.80;;;1.80;;
16450;SDS011;12243;42.708;23.310;2023-07-29T14:42:23;1.92;;;1.90;;
16450;SDS011;12243;42.708;23.310;2023-07-29T14:44:51;2.80;;;1.98;;